Time;durP1;ratioP1;P1;durP2;ratioP2;P2;SDS_P1;SDS_P2;PMS_P1;PMS_P2;Temp;Humidity;BMP_temperature;BMP_pressure;BME280_temperature;BME280_humidity;BME280_pressure;Samples;Min_cycle;Max_cycle;Signal;HPM_P1;HPM_P2
2023/03/26 00:00:31;;;;;;;2.57;1.57;;;8.80;99.90;;;;;;5038292;28;20449;-63
2023/03/26 00:02:58;;;;;;;1.60;1.40;;;8.80;99.90;;;;;;5038385;28;20484;-61
2023/03/26 00:05:25;;;;;;;2.60;2.13;;;8.80;99.90;;;;;;5038228;28;20440;-57
2023/03/26 00:07:52;;;;;;;2.07;1.77;;;8.80;99.90;;;;;;5038006;28;20471;-63
2023/03/26 00:10:19;;;;;;;2.10;1.80;;;8.80;99.90;;;;;;5038208;28;20432;-64
2023/03/26 00:12:46;;;;;;;2.33;2.00;;;8.70;99.90;;;;;;5038217;28;20421;-62
2023/03/26 00:15:13;;;;;;;3.47;1.50;;;8.80;99.90;;;;;;5038246;28;20449;-63
2023/03/26 00:17:41;;;;;;;4.57;1.50;;;8.80;99.90;;;;;;5036268;28;20448;-66
2023/03/26 00:20:10;;;;;;;3.43;0.93;;;8.80;99.90;;;;;;5036019;28;20469;-63
2023/03/26 00:22:37;;;;;;;2.37;1.90;;;8.80;99.90;;;;;;5035903;28;20499;-60
2023/03/26 00:25:04;;;;;;;2.20;1.53;;;8.80;99.90;;;;;;5036392;28;20452;-58
2023/03/26 00:27:32;;;;;;;2.97;1.43;;;8.80;99.90;;;;;;5035869;28;21113;-60
2023/03/26 00:30:00;;;;;;;3.63;1.30;;;8.80;99.90;;;;;;5036624;28;20449;-62
2023/03/26 00:32:28;;;;;;;2.23;0.90;;;8.80;99.90;;;;;;5035352;28;20499;-58
2023/03/26 00:34:59;;;;;;;4.60;1.67;;;8.70;99.90;;;;;;5023277;28;20449;-62
2023/03/26 00:37:26;;;;;;;1.73;1.27;;;8.70;99.90;;;;;;5026042;28;20530;-62
2023/03/26 00:39:53;;;;;;;1.70;1.20;;;8.80;99.90;;;;;;5024605;28;20477;-59
2023/03/26 00:42:20;;;;;;;4.87;1.63;;;8.80;99.90;;;;;;5016275;28;20462;-62
2023/03/26 00:44:50;;;;;;;3.90;1.83;;;8.80;99.90;;;;;;5016465;28;20470;-59
2023/03/26 00:47:16;;;;;;;6.10;1.40;;;8.80;99.90;;;;;;5030700;28;21018;-61
2023/03/26 00:49:45;;;;;;;2.20;1.70;;;8.80;99.90;;;;;;5036495;28;20461;-61
2023/03/26 00:52:17;;;;;;;1.77;1.30;;;8.80;99.90;;;;;;5034083;28;20425;-62
2023/03/26 00:54:44;;;;;;;1.50;1.10;;;8.80;99.90;;;;;;5034674;28;20426;-62
2023/03/26 00:57:12;;;;;;;2.70;1.10;;;8.80;99.90;;;;;;5034948;28;20473;-59
2023/03/26 00:59:39;;;;;;;3.87;1.40;;;8.80;99.90;;;;;;5035617;28;20997;-62
2023/03/26 01:02:09;;;;;;;1.67;1.03;;;8.80;99.90;;;;;;5035801;28;20477;-62
2023/03/26 01:04:37;;;;;;;4.03;1.50;;;8.80;99.90;;;;;;5036682;28;20468;-63
2023/03/26 01:07:12;;;;;;;1.60;1.40;;;8.90;99.90;;;;;;5035468;28;20498;-64
2023/03/26 01:09:44;;;;;;;1.90;1.07;;;8.90;99.90;;;;;;5035623;28;20492;-58
2023/03/26 01:12:15;;;;;;;3.97;1.00;;;8.90;99.90;;;;;;5035830;28;20417;-62
2023/03/26 01:14:43;;;;;;;2.93;1.33;;;8.80;99.90;;;;;;5035477;28;20425;-62
2023/03/26 01:17:11;;;;;;;4.30;1.57;;;8.80;99.90;;;;;;5033919;28;20970;-63
2023/03/26 01:19:47;;;;;;;1.57;1.47;;;8.70;99.90;;;;;;5047780;22;20629;-69
2023/03/26 01:22:16;;;;;;;1.60;1.37;;;8.70;99.90;;;;;;5036684;28;20506;-70
2023/03/26 01:24:45;;;;;;;3.93;1.70;;;8.70;99.90;;;;;;5035897;28;20843;-69
2023/03/26 01:27:27;;;;;;;2.80;1.43;;;8.70;99.90;;;;;;5033947;28;20530;-69
2023/03/26 01:30:00;;;;;;;4.40;1.50;;;8.70;99.90;;;;;;5034756;28;20530;-70
2023/03/26 01:32:43;;;;;;;2.37;1.73;;;8.70;99.90;;;;;;5028981;28;20503;-68
2023/03/26 01:35:29;;;;;;;9.13;1.80;;;8.70;99.90;;;;;;5020882;28;21156;-68
2023/03/26 01:38:17;;;;;;;4.07;2.00;;;8.60;99.90;;;;;;5045668;28;20444;-68
2023/03/26 01:40:51;;;;;;;2.00;1.77;;;8.50;99.90;;;;;;5042595;28;20540;-70
2023/03/26 01:43:31;;;;;;;1.33;1.03;;;8.50;99.90;;;;;;5040462;28;20499;-70
2023/03/26 01:46:01;;;;;;;1.10;0.90;;;8.40;99.90;;;;;;5040438;28;20460;-70
2023/03/26 01:48:36;;;;;;;1.30;0.90;;;8.30;99.90;;;;;;5047819;28;20467;-69
2023/03/26 01:51:04;;;;;;;3.63;1.30;;;8.20;99.90;;;;;;5027945;28;20854;-70
2023/03/26 01:53:32;;;;;;;1.37;1.20;;;8.20;99.90;;;;;;5024278;28;20488;-71
2023/03/26 01:56:14;;;;;;;1.77;1.47;;;8.10;99.90;;;;;;5026199;28;20460;-70
2023/03/26 01:58:52;;;;;;;1.77;1.00;;;8.10;99.90;;;;;;5039779;28;20456;-72
2023/03/26 02:01:28;;;;;;;2.67;1.10;;;8.00;99.90;;;;;;5031703;28;20459;-70
2023/03/26 02:04:06;;;;;;;1.10;0.93;;;8.00;99.90;;;;;;5037201;28;20484;-72
2023/03/26 02:06:39;;;;;;;0.90;0.70;;;8.00;99.90;;;;;;5019572;28;20491;-69
2023/03/26 02:09:11;;;;;;;1.30;0.90;;;8.00;99.90;;;;;;5019382;28;20657;-70
2023/03/26 02:11:42;;;;;;;6.77;0.97;;;7.90;99.90;;;;;;5023103;28;20495;-68
2023/03/26 02:14:09;;;;;;;5.00;1.10;;;7.90;99.90;;;;;;5033419;28;20449;-69
2023/03/26 02:16:36;;;;;;;1.67;0.90;;;7.90;99.90;;;;;;5034871;28;20438;-69
2023/03/26 02:19:03;;;;;;;1.00;0.80;;;7.90;99.90;;;;;;5030286;28;20936;-69
2023/03/26 02:21:32;;;;;;;2.90;1.53;;;7.90;99.90;;;;;;5033594;28;20464;-69
2023/03/26 02:24:02;;;;;;;1.10;0.90;;;7.90;99.90;;;;;;5034633;28;20774;-69
2023/03/26 02:26:31;;;;;;;2.60;0.80;;;8.00;99.90;;;;;;5033846;28;20536;-70
2023/03/26 02:29:00;;;;;;;1.47;0.80;;;8.00;99.90;;;;;;5031532;28;20823;-70
2023/03/26 02:31:28;;;;;;;1.50;0.80;;;8.00;99.90;;;;;;5031750;28;20469;-69
2023/03/26 02:33:56;;;;;;;1.93;0.97;;;8.00;99.90;;;;;;5028826;28;20468;-69
2023/03/26 02:36:26;;;;;;;2.67;1.03;;;8.00;99.90;;;;;;5024861;28;20537;-68
2023/03/26 02:39:00;;;;;;;6.30;1.57;;;8.00;99.90;;;;;;5032869;28;20518;-70
2023/03/26 02:41:27;;;;;;;1.30;1.20;;;8.00;99.90;;;;;;5038062;28;20472;-69
2023/03/26 02:43:54;;;;;;;3.77;1.57;;;8.00;99.90;;;;;;5037081;28;20491;-71
2023/03/26 02:46:22;;;;;;;4.13;0.93;;;8.00;99.90;;;;;;5025962;28;20444;-69
2023/03/26 02:48:49;;;;;;;2.63;1.07;;;8.00;99.90;;;;;;5017298;28;20441;-71
2023/03/26 02:51:18;;;;;;;1.93;1.40;;;8.00;99.90;;;;;;5016937;28;20453;-71
2023/03/26 02:53:46;;;;;;;1.30;1.10;;;8.00;99.90;;;;;;5017405;28;20510;-72
2023/03/26 02:56:13;;;;;;;1.40;1.30;;;7.90;99.90;;;;;;5017377;28;20571;-70
2023/03/26 02:58:40;;;;;;;1.80;1.40;;;7.90;99.90;;;;;;5016076;28;20433;-71
2023/03/26 03:01:07;;;;;;;2.17;1.27;;;7.90;99.90;;;;;;5016017;28;20460;-70
2023/03/26 03:03:36;;;;;;;1.87;1.63;;;7.90;99.90;;;;;;5023789;28;21006;-70
2023/03/26 03:06:04;;;;;;;1.40;1.17;;;8.00;99.90;;;;;;5036263;28;20451;-70
2023/03/26 03:08:34;;;;;;;1.50;1.27;;;8.00;99.90;;;;;;5035361;28;20479;-69
2023/03/26 03:11:03;;;;;;;1.30;1.20;;;8.00;99.90;;;;;;5035860;28;20468;-69
2023/03/26 03:13:31;;;;;;;4.53;1.60;;;8.00;99.90;;;;;;5036021;28;20578;-70
2023/03/26 03:15:58;;;;;;;1.60;1.23;;;8.00;99.90;;;;;;5036709;28;20939;-70
2023/03/26 03:18:25;;;;;;;1.73;0.97;;;8.00;99.90;;;;;;5035988;28;20559;-70
2023/03/26 03:20:54;;;;;;;2.70;1.70;;;8.10;99.90;;;;;;5035634;28;20515;-70
2023/03/26 03:23:21;;;;;;;1.80;1.57;;;8.00;99.90;;;;;;5035845;28;20464;-69
2023/03/26 03:25:49;;;;;;;1.93;1.57;;;8.00;99.90;;;;;;5036577;28;20567;-70
2023/03/26 03:28:17;;;;;;;2.30;1.37;;;8.00;99.90;;;;;;5036223;28;20519;-69
2023/03/26 03:30:45;;;;;;;1.57;1.30;;;8.00;99.90;;;;;;5036367;28;20948;-69
2023/03/26 03:33:19;;;;;;;2.37;1.83;;;8.00;99.90;;;;;;5031071;28;20465;-69
2023/03/26 03:35:46;;;;;;;1.60;1.40;;;8.10;99.90;;;;;;5015814;28;20452;-69
2023/03/26 03:38:18;;;;;;;1.80;1.60;;;8.10;99.90;;;;;;5015565;28;20612;-70
2023/03/26 03:40:45;;;;;;;2.73;1.70;;;8.20;99.90;;;;;;5018657;28;21043;-71
2023/03/26 03:43:12;;;;;;;2.50;2.00;;;8.20;99.90;;;;;;5020011;28;20501;-71
2023/03/26 03:45:39;;;;;;;4.63;1.30;;;8.10;99.90;;;;;;5019923;28;20850;-70
2023/03/26 03:48:06;;;;;;;3.93;1.77;;;8.20;99.90;;;;;;5018692;28;20499;-70
2023/03/26 03:50:34;;;;;;;2.03;1.30;;;8.20;99.90;;;;;;5018117;28;20496;-71
2023/03/26 03:53:01;;;;;;;2.30;1.77;;;8.20;99.90;;;;;;5018638;28;20421;-70
2023/03/26 03:55:30;;;;;;;2.20;1.23;;;8.30;99.90;;;;;;5018926;28;20520;-69
2023/03/26 03:57:58;;;;;;;1.40;1.20;;;8.30;99.90;;;;;;5019427;28;20472;-71
2023/03/26 04:00:25;;;;;;;1.50;1.30;;;8.30;99.90;;;;;;5019939;28;20475;-72
2023/03/26 04:02:55;;;;;;;3.60;1.40;;;8.30;99.90;;;;;;5019130;28;20488;-70
2023/03/26 04:05:22;;;;;;;3.67;1.30;;;8.30;99.90;;;;;;5018683;28;21026;-71
2023/03/26 04:07:49;;;;;;;2.00;1.70;;;8.30;99.90;;;;;;5019024;28;20434;-70
2023/03/26 04:10:16;;;;;;;5.67;2.20;;;8.30;99.90;;;;;;5018651;28;20461;-70
2023/03/26 04:12:45;;;;;;;1.70;1.60;;;8.20;99.90;;;;;;5020012;28;20488;-71
2023/03/26 04:15:12;;;;;;;1.53;1.40;;;8.30;99.90;;;;;;5019367;28;20449;-70
2023/03/26 04:17:43;;;;;;;2.03;1.47;;;8.30;99.90;;;;;;5018939;28;20441;-70
2023/03/26 04:20:14;;;;;;;2.20;1.37;;;8.30;99.90;;;;;;5018523;28;20481;-69
2023/03/26 04:22:42;;;;;;;2.20;1.10;;;8.30;99.90;;;;;;5019009;28;20445;-71
2023/03/26 04:25:10;;;;;;;2.93;1.33;;;8.30;99.90;;;;;;5022435;28;20514;-70
2023/03/26 04:27:40;;;;;;;6.77;1.77;;;8.20;99.90;;;;;;5040414;28;20799;-70
2023/03/26 04:30:15;;;;;;;4.57;2.67;;;8.20;99.90;;;;;;5039162;28;20480;-70
2023/03/26 04:32:43;;;;;;;2.23;1.40;;;8.20;99.90;;;;;;5038917;28;20428;-70
2023/03/26 04:35:13;;;;;;;2.43;1.43;;;8.20;99.90;;;;;;5038830;28;20464;-71
2023/03/26 04:37:43;;;;;;;3.50;1.87;;;8.20;99.90;;;;;;5039114;28;20460;-71
2023/03/26 04:40:16;;;;;;;3.07;1.77;;;8.10;99.90;;;;;;5038547;28;20796;-70
2023/03/26 04:42:44;;;;;;;5.57;1.63;;;8.10;99.90;;;;;;5039212;28;20467;-70
2023/03/26 04:45:15;;;;;;;2.03;1.47;;;8.10;99.90;;;;;;5038983;28;21106;-71
2023/03/26 04:47:42;;;;;;;3.93;2.33;;;8.00;99.90;;;;;;5038680;28;20674;-70
2023/03/26 04:50:11;;;;;;;3.33;1.20;;;8.10;99.90;;;;;;5038056;28;20492;-69
2023/03/26 04:52:38;;;;;;;1.20;1.10;;;8.10;99.90;;;;;;5039922;28;20451;-71
2023/03/26 04:55:18;;;;;;;3.27;1.50;;;8.00;99.90;;;;;;5038433;28;20535;-70
2023/03/26 04:57:49;;;;;;;1.20;1.00;;;8.00;99.90;;;;;;5038458;28;20498;-69
2023/03/26 05:00:19;;;;;;;1.03;0.87;;;8.00;99.90;;;;;;5038837;28;20874;-70
2023/03/26 05:02:49;;;;;;;1.10;0.80;;;7.90;99.90;;;;;;5038238;28;20496;-70
2023/03/26 05:05:16;;;;;;;1.30;0.93;;;8.00;99.90;;;;;;5039669;28;21074;-70
2023/03/26 05:07:43;;;;;;;3.53;1.73;;;8.00;99.90;;;;;;5038814;28;20436;-70
2023/03/26 05:10:13;;;;;;;1.77;1.00;;;8.00;99.90;;;;;;5037010;28;20481;-72
2023/03/26 05:12:40;;;;;;;2.70;1.37;;;8.00;99.90;;;;;;5038428;28;20461;-71
2023/03/26 05:15:08;;;;;;;1.73;1.20;;;8.00;99.90;;;;;;5037886;28;20647;-71
2023/03/26 05:17:40;;;;;;;3.17;1.23;;;8.10;99.90;;;;;;5035950;28;20571;-69
2023/03/26 05:20:15;;;;;;;4.03;1.87;;;8.10;99.90;;;;;;5037379;28;20530;-70
2023/03/26 05:22:42;;;;;;;2.03;1.87;;;8.20;99.90;;;;;;5036936;28;20522;-70
2023/03/26 05:25:10;;;;;;;3.60;2.00;;;8.20;99.90;;;;;;5038252;28;20484;-70
2023/03/26 05:27:37;;;;;;;2.87;1.57;;;8.20;99.90;;;;;;5038398;28;20975;-70
2023/03/26 05:30:06;;;;;;;3.27;1.67;;;8.20;99.90;;;;;;5038492;28;20490;-70
2023/03/26 05:32:33;;;;;;;1.47;1.10;;;8.20;99.90;;;;;;5037459;28;20472;-71
2023/03/26 05:35:02;;;;;;;2.30;1.20;;;8.20;99.90;;;;;;5037904;28;20429;-69
2023/03/26 05:37:30;;;;;;;2.20;1.73;;;8.20;99.90;;;;;;5037850;28;20432;-72
2023/03/26 05:39:58;;;;;;;1.77;1.37;;;8.20;99.90;;;;;;5036960;28;20476;-72
2023/03/26 05:42:25;;;;;;;3.40;1.30;;;8.20;99.90;;;;;;5039267;28;20475;-71
2023/03/26 05:44:52;;;;;;;1.67;1.30;;;8.20;99.90;;;;;;5037536;28;20535;-72
2023/03/26 05:47:19;;;;;;;8.33;1.83;;;8.20;99.90;;;;;;5036316;28;20867;-70
2023/03/26 05:49:46;;;;;;;1.90;1.30;;;8.20;99.90;;;;;;5037733;28;20524;-71
2023/03/26 05:52:17;;;;;;;2.70;1.67;;;8.30;99.90;;;;;;5037440;28;20439;-70
2023/03/26 05:54:44;;;;;;;1.77;1.20;;;8.30;99.90;;;;;;5038059;28;20433;-71
2023/03/26 05:57:11;;;;;;;2.37;1.20;;;8.30;99.90;;;;;;5038423;28;20807;-70
2023/03/26 05:59:38;;;;;;;1.77;1.50;;;8.30;99.90;;;;;;5037382;28;20487;-71
2023/03/26 06:02:06;;;;;;;2.70;2.10;;;8.30;99.90;;;;;;5036683;28;20531;-71
2023/03/26 06:04:33;;;;;;;3.80;1.40;;;8.30;99.90;;;;;;5037077;28;20491;-70
2023/03/26 06:07:01;;;;;;;3.10;1.30;;;8.30;99.90;;;;;;5036830;28;20466;-71
2023/03/26 06:09:29;;;;;;;5.37;2.17;;;8.30;99.90;;;;;;5037206;28;20523;-71
2023/03/26 06:11:56;;;;;;;1.50;1.20;;;8.30;99.90;;;;;;5037204;28;20475;-70
2023/03/26 06:14:23;;;;;;;2.70;1.10;;;8.30;99.90;;;;;;5038039;28;20984;-69
2023/03/26 06:16:50;;;;;;;2.50;1.20;;;8.30;99.90;;;;;;5036656;28;20500;-71
2023/03/26 06:19:17;;;;;;;4.30;1.40;;;8.40;99.90;;;;;;5036318;28;20472;-69
2023/03/26 06:21:44;;;;;;;5.53;1.27;;;8.40;99.90;;;;;;5036460;28;20464;-69
2023/03/26 06:24:11;;;;;;;1.77;1.13;;;8.40;99.90;;;;;;5037057;28;20574;-70
2023/03/26 06:26:39;;;;;;;2.03;1.33;;;8.40;99.90;;;;;;5037309;28;20453;-71
2023/03/26 06:29:06;;;;;;;7.40;2.10;;;8.40;99.90;;;;;;5037308;28;20436;-70
2023/03/26 06:31:35;;;;;;;1.50;1.40;;;8.40;99.90;;;;;;5036120;28;20499;-70
2023/03/26 06:34:02;;;;;;;2.13;1.20;;;8.40;99.90;;;;;;5036272;28;20495;-70
2023/03/26 06:36:29;;;;;;;3.53;1.30;;;8.50;99.90;;;;;;5036268;28;20444;-70
2023/03/26 06:38:56;;;;;;;2.60;1.90;;;8.60;99.90;;;;;;5036920;28;20598;-71
2023/03/26 06:41:23;;;;;;;3.63;1.23;;;8.60;99.90;;;;;;5036505;28;20496;-71
2023/03/26 06:43:52;;;;;;;1.33;1.23;;;8.50;99.90;;;;;;5036496;28;20468;-70
2023/03/26 06:46:20;;;;;;;5.40;1.10;;;8.60;99.90;;;;;;5036349;28;20476;-69
2023/03/26 06:48:54;;;;;;;2.00;1.47;;;8.50;99.90;;;;;;5034270;28;20488;-70
2023/03/26 06:51:21;;;;;;;3.97;2.03;;;8.60;99.90;;;;;;5035373;28;20503;-71
2023/03/26 06:53:48;;;;;;;2.90;1.00;;;8.60;99.90;;;;;;5035741;28;20474;-69
2023/03/26 06:56:16;;;;;;;1.67;1.20;;;8.60;99.90;;;;;;5024613;28;20531;-70
2023/03/26 06:58:43;;;;;;;2.60;0.90;;;8.50;99.90;;;;;;5020193;28;20484;-72
2023/03/26 07:01:12;;;;;;;1.20;1.10;;;8.60;99.90;;;;;;5034988;28;21045;-71
2023/03/26 07:03:39;;;;;;;2.73;1.67;;;8.60;99.90;;;;;;5033429;28;20848;-71
2023/03/26 07:06:06;;;;;;;3.17;1.87;;;8.70;99.90;;;;;;5034428;28;20440;-73
2023/03/26 07:08:33;;;;;;;3.27;1.63;;;8.80;99.90;;;;;;5014987;28;20913;-73
2023/03/26 07:11:01;;;;;;;1.70;1.30;;;8.90;99.90;;;;;;5014675;28;20496;-72
2023/03/26 07:13:28;;;;;;;1.90;1.10;;;9.00;99.90;;;;;;5017603;28;20429;-71
2023/03/26 07:15:55;;;;;;;1.73;1.63;;;9.10;99.90;;;;;;5019690;28;20441;-69
2023/03/26 07:18:24;;;;;;;1.63;1.23;;;9.10;99.90;;;;;;5019160;28;21288;-72
2023/03/26 07:20:52;;;;;;;1.87;1.00;;;9.20;99.90;;;;;;5018735;28;20556;-70
2023/03/26 07:23:20;;;;;;;2.60;1.37;;;9.30;99.90;;;;;;5017211;28;20468;-69
2023/03/26 07:25:48;;;;;;;1.47;1.07;;;9.40;99.90;;;;;;5019409;28;20504;-69
2023/03/26 07:28:27;;;;;;;3.47;1.77;;;9.40;99.90;;;;;;5019341;28;20433;-68
2023/03/26 07:31:03;;;;;;;2.80;1.30;;;9.50;99.90;;;;;;5036915;28;20459;-70
2023/03/26 07:33:39;;;;;;;2.30;1.33;;;9.50;99.90;;;;;;5028421;28;20517;-71
2023/03/26 07:36:20;;;;;;;1.67;1.17;;;9.40;99.90;;;;;;5026689;28;20952;-71
2023/03/26 07:39:04;;;;;;;2.83;2.43;;;9.60;99.90;;;;;;5030870;28;20889;-71
2023/03/26 07:41:40;;;;;;;2.33;1.37;;;9.50;99.90;;;;;;5028381;28;20797;-71
2023/03/26 07:44:35;;;;;;;7.50;1.73;;;9.50;99.90;;;;;;5026409;28;20467;-70
2023/03/26 07:47:15;;;;;;;2.50;1.40;;;9.60;99.90;;;;;;5017109;28;20850;-71
2023/03/26 07:49:45;;;;;;;3.93;1.33;;;9.50;99.90;;;;;;5040656;28;20444;-70
2023/03/26 07:52:15;;;;;;;1.30;1.20;;;9.40;99.90;;;;;;5043580;28;20478;-71
2023/03/26 07:54:42;;;;;;;2.27;1.10;;;9.30;99.90;;;;;;5044219;28;20440;-71
2023/03/26 07:57:22;;;;;;;2.93;1.43;;;9.20;99.90;;;;;;5045576;28;20432;-70
2023/03/26 07:59:54;;;;;;;2.80;1.30;;;9.10;99.90;;;;;;5045608;28;20478;-70
2023/03/26 08:02:42;;;;;;;2.30;1.40;;;9.10;99.90;;;;;;5043919;28;20928;-69
2023/03/26 08:05:20;;;;;;;2.40;1.70;;;9.10;99.90;;;;;;5044584;28;20975;-69
2023/03/26 08:08:03;;;;;;;2.07;1.10;;;9.10;99.90;;;;;;5045018;28;20947;-70
2023/03/26 08:10:37;;;;;;;9.60;1.20;;;9.10;99.90;;;;;;5045969;28;20448;-70
2023/03/26 08:13:17;;;;;;;4.03;1.10;;;9.10;99.90;;;;;;5050024;28;20453;-71
2023/03/26 08:15:56;;;;;;;2.60;1.33;;;9.10;99.90;;;;;;5043451;28;20454;-71
2023/03/26 08:18:42;;;;;;;1.57;1.13;;;9.20;99.90;;;;;;5050166;28;20432;-70
2023/03/26 08:21:15;;;;;;;3.97;2.00;;;9.20;99.90;;;;;;5040867;28;20548;-71
2023/03/26 08:23:56;;;;;;;1.43;1.00;;;9.10;99.90;;;;;;5035954;28;20468;-70
2023/03/26 08:26:32;;;;;;;6.83;2.70;;;9.10;99.90;;;;;;5048259;28;20435;-71
2023/03/26 08:29:09;;;;;;;7.53;1.30;;;9.10;99.90;;;;;;5047826;28;20445;-70
2023/03/26 08:31:41;;;;;;;2.27;1.30;;;9.20;99.90;;;;;;5034143;28;20457;-69
2023/03/26 08:34:13;;;;;;;6.60;1.50;;;9.10;99.90;;;;;;5035851;28;20444;-73
2023/03/26 08:36:43;;;;;;;2.07;1.43;;;9.20;99.90;;;;;;5031761;28;20456;-72
2023/03/26 08:39:10;;;;;;;11.73;1.93;;;9.20;99.90;;;;;;5045044;28;20437;-73
2023/03/26 08:42:19;;;;;;;6.07;1.83;;;9.30;99.90;;;;;;5036818;28;20504;-72
2023/03/26 08:45:25;;;;;;;2.70;2.13;;;9.30;99.90;;;;;;5035944;28;20476;-74
2023/03/26 08:48:24;;;;;;;4.20;1.43;;;9.40;99.90;;;;;;5026097;28;20461;-70
2023/03/26 08:51:26;;;;;;;24.07;2.20;;;9.40;99.90;;;;;;5000864;28;20464;-71
2023/03/26 08:54:32;;;;;;;12.43;3.40;;;9.50;99.90;;;;;;5022371;28;20532;-71
2023/03/26 08:57:18;;;;;;;2.60;1.83;;;9.60;99.90;;;;;;5019622;28;20425;-72
2023/03/26 09:00:10;;;;;;;3.20;2.00;;;9.70;99.90;;;;;;5018602;28;20480;-72
2023/03/26 09:03:04;;;;;;;4.90;1.70;;;9.80;99.90;;;;;;5019420;28;20433;-70
2023/03/26 09:06:12;;;;;;;4.17;2.00;;;9.90;99.90;;;;;;5019220;28;20488;-70
2023/03/26 09:09:12;;;;;;;3.00;1.60;;;9.90;99.90;;;;;;5031780;28;20819;-71
2023/03/26 09:12:07;;;;;;;3.30;1.70;;;9.80;99.90;;;;;;5038095;28;20826;-72
2023/03/26 09:15:20;;;;;;;3.93;1.60;;;9.80;99.90;;;;;;5037642;28;20551;-72
2023/03/26 09:18:07;;;;;;;3.60;2.13;;;9.90;99.90;;;;;;5037231;28;20548;-72
2023/03/26 09:21:38;;;;;;;2.33;1.50;;;10.10;99.90;;;;;;5037872;28;20526;-70
2023/03/26 09:24:53;;;;;;;2.60;1.73;;;10.30;99.90;;;;;;4995622;28;20434;-71
2023/03/26 09:27:36;;;;;;;2.30;1.50;;;10.40;99.90;;;;;;4976323;28;20495;-72
2023/03/26 09:30:46;;;;;;;3.40;1.40;;;10.50;99.90;;;;;;5028726;28;20472;-72
2023/03/26 09:33:32;;;;;;;2.73;1.60;;;10.50;99.90;;;;;;5005425;28;20947;-73
2023/03/26 09:36:20;;;;;;;3.67;1.60;;;10.40;99.90;;;;;;5020189;28;20433;-72
2023/03/26 09:38:53;;;;;;;4.43;1.80;;;10.40;99.90;;;;;;5018212;28;20530;-72
2023/03/26 09:41:35;;;;;;;3.17;1.30;;;10.40;99.90;;;;;;5032287;28;20459;-73
2023/03/26 09:44:41;;;;;;;5.37;1.73;;;10.30;99.90;;;;;;5033118;28;20537;-72
2023/03/26 09:47:33;;;;;;;1.63;1.50;;;10.20;99.90;;;;;;5025373;28;20436;-73
2023/03/26 09:50:23;;;;;;;4.57;1.47;;;10.20;99.90;;;;;;5027527;28;20472;-72
2023/03/26 09:53:08;;;;;;;3.60;1.90;;;10.10;99.90;;;;;;5023083;28;20594;-72
2023/03/26 09:56:04;;;;;;;2.83;1.40;;;10.00;99.90;;;;;;5028246;28;20547;-74
2023/03/26 09:58:50;;;;;;;2.90;1.67;;;10.10;99.90;;;;;;5025266;28;20449;-72
2023/03/26 10:01:30;;;;;;;4.37;2.90;;;10.00;99.90;;;;;;5013923;28;20504;-72
2023/03/26 10:04:10;;;;;;;11.50;6.30;;;10.00;99.90;;;;;;5020579;28;20476;-69
2023/03/26 10:06:57;;;;;;;2.90;1.67;;;10.00;99.90;;;;;;5024894;28;20871;-69
2023/03/26 10:09:41;;;;;;;6.10;1.50;;;10.00;99.90;;;;;;5034403;28;20482;-68
2023/03/26 10:12:28;;;;;;;3.80;1.83;;;9.90;99.90;;;;;;5033308;28;20472;-68
2023/03/26 10:15:24;;;;;;;1.50;1.17;;;9.80;99.90;;;;;;5034114;28;20461;-70
2023/03/26 10:18:06;;;;;;;5.23;1.70;;;9.80;99.90;;;;;;5042754;28;20543;-67
2023/03/26 10:20:48;;;;;;;2.27;1.90;;;9.80;99.90;;;;;;5034312;28;20460;-67
2023/03/26 10:23:27;;;;;;;2.50;1.60;;;9.90;99.90;;;;;;5036908;28;20441;-66
2023/03/26 10:26:13;;;;;;;1.53;1.10;;;9.90;99.90;;;;;;5035099;28;20641;-66
2023/03/26 10:28:55;;;;;;;3.37;1.40;;;9.90;99.90;;;;;;5042013;28;20448;-70
2023/03/26 10:31:43;;;;;;;2.80;1.30;;;9.90;99.90;;;;;;5027727;28;20529;-71
2023/03/26 10:34:26;;;;;;;8.07;1.80;;;9.90;99.90;;;;;;5020882;28;20824;-75
2023/03/26 10:36:58;;;;;;;1.67;1.43;;;10.00;99.90;;;;;;5027536;28;20523;-76
2023/03/26 10:39:48;;;;;;;2.27;1.50;;;10.00;99.90;;;;;;5028021;28;20502;-74
2023/03/26 10:42:43;;;;;;;7.10;1.20;;;10.00;99.90;;;;;;5020898;28;20465;-74
2023/03/26 10:45:21;;;;;;;3.40;1.47;;;10.00;99.90;;;;;;5026873;28;20926;-74
2023/03/26 10:48:18;;;;;;;3.27;1.53;;;10.00;99.90;;;;;;5021383;28;20448;-78
2023/03/26 10:51:27;;;;;;;4.03;1.90;;;10.10;99.90;;;;;;5028344;28;20473;-74
2023/03/26 10:53:58;;;;;;;3.83;2.00;;;10.10;99.90;;;;;;5025229;28;20456;-74
2023/03/26 10:56:29;;;;;;;5.00;2.40;;;10.20;99.90;;;;;;5034109;28;20441;-71
2023/03/26 10:58:57;;;;;;;3.30;1.77;;;10.30;99.90;;;;;;5036383;28;20430;-76
2023/03/26 11:01:37;;;;;;;3.43;1.77;;;10.40;99.90;;;;;;5061376;28;20459;-75
2023/03/26 11:04:21;;;;;;;4.90;1.70;;;10.50;99.90;;;;;;5048480;28;20440;-76
2023/03/26 11:06:59;;;;;;;4.47;1.77;;;10.60;99.90;;;;;;5027328;28;20493;-79
2023/03/26 11:09:36;;;;;;;2.33;1.23;;;10.60;99.90;;;;;;5037937;28;20448;-68
2023/03/26 11:12:10;;;;;;;7.03;2.23;;;10.60;99.90;;;;;;5044286;28;20882;-69
2023/03/26 11:14:47;;;;;;;3.87;1.93;;;10.60;99.90;;;;;;5023531;28;20444;-73
2023/03/26 11:17:24;;;;;;;5.23;1.87;;;10.70;99.90;;;;;;5040668;28;20554;-72
2023/03/26 11:19:56;;;;;;;4.40;1.80;;;10.80;99.90;;;;;;5035452;28;20452;-73
2023/03/26 11:22:32;;;;;;;4.67;2.17;;;11.00;99.90;;;;;;5027513;28;20460;-74
2023/03/26 11:25:21;;;;;;;10.63;1.87;;;11.40;99.90;;;;;;5019639;28;20495;-68
2023/03/26 11:28:00;;;;;;;2.73;1.80;;;11.80;99.90;;;;;;5030419;28;20534;-72
2023/03/26 11:30:40;;;;;;;3.20;1.80;;;12.20;99.90;;;;;;5028970;28;20466;-75
2023/03/26 11:33:12;;;;;;;3.90;2.00;;;12.40;99.90;;;;;;5031720;28;20494;-75
2023/03/26 11:35:43;;;;;;;3.37;1.70;;;12.40;99.90;;;;;;5030430;28;20499;-74
2023/03/26 11:38:19;;;;;;;4.00;2.50;;;12.50;99.90;;;;;;5030972;28;20443;-75
2023/03/26 11:40:49;;;;;;;5.03;2.20;;;12.40;99.90;;;;;;5031222;28;20510;-75
2023/03/26 11:43:23;;;;;;;5.03;2.10;;;12.30;99.90;;;;;;5031290;28;20440;-76
2023/03/26 11:45:52;;;;;;;3.90;1.77;;;12.20;99.90;;;;;;5030852;28;20893;-74
2023/03/26 11:48:23;;;;;;;4.23;2.30;;;12.10;99.90;;;;;;5029703;28;20468;-74
2023/03/26 11:50:56;;;;;;;4.50;2.23;;;12.00;99.90;;;;;;5030608;28;20514;-74
2023/03/26 11:53:29;;;;;;;1.60;1.40;;;12.10;99.90;;;;;;5029888;28;20464;-74
2023/03/26 11:56:04;;;;;;;2.57;2.37;;;11.90;99.90;;;;;;5030369;28;20500;-74
2023/03/26 11:58:35;;;;;;;2.97;1.70;;;12.00;99.90;;;;;;5031179;28;20436;-75
2023/03/26 12:01:06;;;;;;;2.67;1.97;;;12.00;99.90;;;;;;5033227;28;20474;-75
2023/03/26 12:03:37;;;;;;;4.50;1.60;;;12.10;99.90;;;;;;5033764;28;20460;-75
2023/03/26 12:06:04;;;;;;;3.30;1.80;;;12.10;99.90;;;;;;5034582;28;20479;-74
2023/03/26 12:08:38;;;;;;;4.17;1.53;;;12.10;99.90;;;;;;5034139;28;21138;-74
2023/03/26 12:11:09;;;;;;;3.73;1.37;;;12.10;99.90;;;;;;5034065;28;20467;-75
2023/03/26 12:13:40;;;;;;;2.53;2.10;;;12.00;99.90;;;;;;5034032;28;20499;-76
2023/03/26 12:16:13;;;;;;;5.57;1.97;;;12.00;99.90;;;;;;5034948;28;20500;-75
2023/03/26 12:18:42;;;;;;;3.47;1.50;;;12.10;99.90;;;;;;5035018;28;20432;-75
2023/03/26 12:21:13;;;;;;;3.43;1.83;;;12.30;99.90;;;;;;5032575;28;20487;-76
2023/03/26 12:23:54;;;;;;;4.00;2.10;;;12.40;99.90;;;;;;5034799;28;20440;-74
2023/03/26 12:26:40;;;;;;;2.83;2.53;;;12.60;99.90;;;;;;5032848;28;20579;-76
2023/03/26 12:29:10;;;;;;;7.20;2.37;;;12.60;99.90;;;;;;5033960;28;20468;-73
2023/03/26 12:31:56;;;;;;;2.03;1.37;;;12.60;99.90;;;;;;5033264;28;21009;-75
2023/03/26 12:34:30;;;;;;;2.63;1.33;;;12.60;99.90;;;;;;5033324;28;20452;-76
2023/03/26 12:36:59;;;;;;;1.43;1.10;;;12.60;99.90;;;;;;5033547;28;20464;-76
2023/03/26 12:39:37;;;;;;;1.70;1.00;;;12.60;99.90;;;;;;5034209;28;20861;-76
2023/03/26 12:42:06;;;;;;;1.23;1.13;;;12.50;99.90;;;;;;5034085;28;20472;-75
2023/03/26 12:44:36;;;;;;;3.20;1.60;;;12.50;99.90;;;;;;5034371;28;20432;-75
2023/03/26 12:47:18;;;;;;;3.67;1.60;;;12.60;99.90;;;;;;5034642;28;20915;-75
2023/03/26 12:49:48;;;;;;;2.70;1.80;;;12.60;99.90;;;;;;5014151;28;20465;-75
2023/03/26 12:52:51;;;;;;;2.40;1.50;;;12.60;99.90;;;;;;5014084;28;20487;-75
2023/03/26 12:55:39;;;;;;;3.80;1.83;;;12.70;99.90;;;;;;5025076;28;20499;-74
2023/03/26 12:58:22;;;;;;;1.47;1.17;;;12.80;99.90;;;;;;5033932;28;20889;-73
2023/03/26 13:00:56;;;;;;;2.50;1.40;;;12.70;99.90;;;;;;5033619;28;20561;-75
2023/03/26 13:03:37;;;;;;;1.77;1.00;;;12.60;99.90;;;;;;5034096;28;20459;-76
2023/03/26 13:06:15;;;;;;;2.90;1.13;;;12.50;99.90;;;;;;5033199;28;20464;-74
2023/03/26 13:09:07;;;;;;;12.60;2.23;;;12.40;99.90;;;;;;5033162;28;20959;-75
2023/03/26 13:11:46;;;;;;;1.97;1.23;;;12.40;99.90;;;;;;5032388;28;20464;-76
2023/03/26 13:14:44;;;;;;;4.33;1.10;;;12.30;99.90;;;;;;5034044;28;20490;-75
2023/03/26 13:17:21;;;;;;;2.60;0.97;;;12.20;99.90;;;;;;5034163;28;20437;-75
2023/03/26 13:19:58;;;;;;;7.13;1.77;;;12.20;99.90;;;;;;5034139;28;20451;-77
2023/03/26 13:22:33;;;;;;;2.67;1.20;;;12.10;99.90;;;;;;5033975;28;20902;-77
2023/03/26 13:25:09;;;;;;;1.20;1.00;;;12.10;99.90;;;;;;5034038;28;20476;-74
2023/03/26 13:28:00;;;;;;;1.40;1.20;;;12.10;99.90;;;;;;5033567;28;20463;-75
2023/03/26 13:30:35;;;;;;;3.50;1.10;;;12.20;99.90;;;;;;5033602;28;20504;-75